createdAt,value
2022-12-27T00:00:36.431Z,92.01
2022-12-27T00:01:36.537Z,92.01
2022-12-27T00:02:36.454Z,92.01
2022-12-27T00:03:36.411Z,92.11
2022-12-27T00:04:36.433Z,92.22
2022-12-27T00:05:36.365Z,92.32
2022-12-27T00:06:36.359Z,92.43
2022-12-27T00:07:36.444Z,92.63
2022-12-27T00:08:36.331Z,92.63
2022-12-27T00:09:36.319Z,92.74
2022-12-27T00:10:36.363Z,92.74
2022-12-27T00:11:36.302Z,92.74
2022-12-27T00:12:36.305Z,92.74
2022-12-27T00:13:36.337Z,92.63
2022-12-27T00:14:36.293Z,92.63
2022-12-27T00:15:36.256Z,92.74
2022-12-27T00:16:36.379Z,92.84
2022-12-27T00:17:36.218Z,92.84
2022-12-27T00:18:36.225Z,92.84
2022-12-27T00:19:36.263Z,92.99
2022-12-27T00:20:36.228Z,93.20
2022-12-27T00:21:36.191Z,93.20
2022-12-27T00:22:36.183Z,93.30
2022-12-27T00:23:36.188Z,93.41
2022-12-27T00:24:36.213Z,93.41
2022-12-27T00:25:36.236Z,93.41
2022-12-27T00:26:36.164Z,93.26
2022-12-27T00:27:36.141Z,93.16
2022-12-27T00:28:36.136Z,93.20
2022-12-27T00:29:36.125Z,93.41
2022-12-27T00:30:36.076Z,93.41
2022-12-27T00:31:36.183Z,93.26
2022-12-27T00:32:36.144Z,93.16
2022-12-27T00:33:36.053Z,93.16
2022-12-27T00:34:36.099Z,93.16
2022-12-27T00:35:36.040Z,93.05
2022-12-27T00:36:36.030Z,93.16
2022-12-27T00:37:36.075Z,93.16
2022-12-27T00:38:36.006Z,93.16
2022-12-27T00:39:35.979Z,93.16
2022-12-27T00:40:36.041Z,93.26
2022-12-27T00:41:35.982Z,93.26
2022-12-27T00:42:35.966Z,93.26
2022-12-27T00:43:35.997Z,93.16
2022-12-27T00:44:35.974Z,93.05
2022-12-27T00:45:35.956Z,93.05
2022-12-27T00:46:35.950Z,93.16
2022-12-27T00:47:35.952Z,93.16
2022-12-27T00:48:35.899Z,93.16
2022-12-27T00:49:35.989Z,93.16
2022-12-27T00:50:35.850Z,93.16
2022-12-27T00:51:35.846Z,93.16
2022-12-27T00:52:35.865Z,93.05
2022-12-27T00:53:35.847Z,93.05
2022-12-27T00:54:35.835Z,93.05
2022-12-27T00:55:35.840Z,92.94
2022-12-27T00:56:35.839Z,92.84
2022-12-27T00:57:35.833Z,92.94
2022-12-27T00:58:40.531Z,93.05
2022-12-27T00:59:35.813Z,93.05
2022-12-27T01:00:35.783Z,93.05
2022-12-27T01:01:35.963Z,93.26
2022-12-27T01:02:35.725Z,93.37
2022-12-27T01:03:35.776Z,93.26
2022-12-27T01:04:35.736Z,93.26
2022-12-27T01:05:35.704Z,93.47
2022-12-27T01:06:35.696Z,93.26
2022-12-27T01:07:35.709Z,93.26
2022-12-27T01:08:35.690Z,93.05
2022-12-27T01:09:35.684Z,93.05
2022-12-27T01:10:35.634Z,93.16
2022-12-27T01:11:35.669Z,93.26
2022-12-27T01:12:35.620Z,93.16
2022-12-27T01:13:35.660Z,93.26
2022-12-27T01:14:35.615Z,93.37
2022-12-27T01:15:35.583Z,93.47
2022-12-27T01:16:35.686Z,93.37
2022-12-27T01:17:35.604Z,93.47
2022-12-27T01:18:35.565Z,93.57
2022-12-27T01:19:35.612Z,93.78
2022-12-27T01:20:35.560Z,93.68
2022-12-27T01:21:35.572Z,93.78
2022-12-27T01:22:35.561Z,93.88
2022-12-27T01:23:35.515Z,94.09
2022-12-27T01:24:35.476Z,93.88
2022-12-27T01:25:35.541Z,93.99
2022-12-27T01:26:35.457Z,94.09
2022-12-27T01:27:35.459Z,94.09
2022-12-27T01:28:35.427Z,94.20
2022-12-27T01:29:35.422Z,94.20
2022-12-27T01:30:35.403Z,94.09
2022-12-27T01:31:35.481Z,94.09
2022-12-27T01:32:35.385Z,93.99
2022-12-27T01:33:35.393Z,93.99
2022-12-27T01:34:35.367Z,93.99
2022-12-27T01:35:35.357Z,94.09
2022-12-27T01:36:35.371Z,94.30
2022-12-27T01:37:35.334Z,94.30
2022-12-27T01:38:35.318Z,94.30
2022-12-27T01:39:35.316Z,94.40
2022-12-27T01:40:35.321Z,94.40
2022-12-27T01:41:35.290Z,94.45
2022-12-27T01:42:35.311Z,94.55
2022-12-27T01:43:35.265Z,94.55
2022-12-27T01:44:35.270Z,94.61
2022-12-27T01:45:35.327Z,94.61
2022-12-27T01:46:35.231Z,94.51
2022-12-27T01:47:35.249Z,94.51
2022-12-27T01:48:35.211Z,94.51
2022-12-27T01:49:35.197Z,94.51
2022-12-27T01:50:35.190Z,94.61
2022-12-27T01:51:39.686Z,94.71
2022-12-27T01:52:35.456Z,94.82
2022-12-27T01:53:35.166Z,94.82
2022-12-27T01:54:35.154Z,94.71
2022-12-27T01:55:35.147Z,94.86
2022-12-27T01:56:35.125Z,94.96
2022-12-27T01:57:35.114Z,94.96
2022-12-27T01:58:35.152Z,94.96
2022-12-27T01:59:35.094Z,95.07
2022-12-27T02:00:35.119Z,95.28
2022-12-27T02:01:35.336Z,95.48
2022-12-27T02:02:35.259Z,95.48
2022-12-27T02:03:35.095Z,95.38
2022-12-27T02:04:35.063Z,95.48
2022-12-27T02:05:35.035Z,95.38
2022-12-27T02:06:35.053Z,95.38
2022-12-27T02:07:35.049Z,95.59
2022-12-27T02:08:35.056Z,95.59
2022-12-27T02:09:35.019Z,95.59
2022-12-27T02:10:34.975Z,95.79
2022-12-27T02:11:34.965Z,95.79
2022-12-27T02:12:34.962Z,95.79
2022-12-27T02:13:34.940Z,95.69
2022-12-27T02:14:34.979Z,95.69
2022-12-27T02:15:34.937Z,95.79
2022-12-27T02:16:34.919Z,95.79
2022-12-27T02:17:34.893Z,95.90
2022-12-27T02:18:34.880Z,95.90
2022-12-27T02:19:34.873Z,96.00
2022-12-27T02:20:35.176Z,96.21
2022-12-27T02:21:34.856Z,96.31
2022-12-27T02:22:34.830Z,96.11
2022-12-27T02:23:39.584Z,96.31
2022-12-27T02:24:34.812Z,96.31
2022-12-27T02:25:34.806Z,96.21
2022-12-27T02:26:34.811Z,96.31
2022-12-27T02:27:34.789Z,96.21
2022-12-27T02:28:34.771Z,96.11
2022-12-27T02:29:34.766Z,96.11
2022-12-27T02:30:34.804Z,96.21
2022-12-27T02:31:34.744Z,96.17
2022-12-27T02:32:34.763Z,95.96
2022-12-27T02:33:34.711Z,96.00
2022-12-27T02:34:34.707Z,95.96
2022-12-27T02:35:34.702Z,95.90
2022-12-27T02:36:34.685Z,95.96
2022-12-27T02:37:34.668Z,95.96
2022-12-27T02:38:34.694Z,95.96
2022-12-27T02:39:34.643Z,95.86
2022-12-27T02:40:34.636Z,96.00
2022-12-27T02:41:34.628Z,96.11
2022-12-27T02:42:34.634Z,96.21
2022-12-27T02:43:34.609Z,96.31
2022-12-27T02:44:34.614Z,96.37
2022-12-27T02:45:34.587Z,96.17
2022-12-27T02:46:34.597Z,96.11
2022-12-27T02:47:34.565Z,96.11
2022-12-27T02:48:34.547Z,96.21
2022-12-27T02:49:34.541Z,96.42
2022-12-27T02:50:34.557Z,96.42
2022-12-27T02:51:34.515Z,96.52
2022-12-27T02:52:34.506Z,96.52
2022-12-27T02:53:34.496Z,96.73
2022-12-27T02:54:34.477Z,96.73
2022-12-27T02:55:34.475Z,96.73
2022-12-27T02:56:34.493Z,96.73
2022-12-27T02:57:34.450Z,96.62
2022-12-27T02:58:34.441Z,96.52
2022-12-27T02:59:34.443Z,96.62
2022-12-27T03:00:34.410Z,96.52
2022-12-27T03:01:34.496Z,96.62
2022-12-27T03:02:34.492Z,96.62
2022-12-27T03:03:36.356Z,96.62
2022-12-27T03:04:34.371Z,96.62
2022-12-27T03:05:34.364Z,96.62
2022-12-27T03:06:34.380Z,96.58
2022-12-27T03:07:34.382Z,96.58
2022-12-27T03:08:34.322Z,96.52
2022-12-27T03:09:34.325Z,96.58
2022-12-27T03:10:34.297Z,96.58
2022-12-27T03:11:34.294Z,96.48
2022-12-27T03:12:34.292Z,96.62
2022-12-27T03:13:34.303Z,96.69
2022-12-27T03:14:34.273Z,96.58
2022-12-27T03:15:34.321Z,96.69
2022-12-27T03:16:34.238Z,96.58
2022-12-27T03:17:34.233Z,96.58
2022-12-27T03:18:34.211Z,96.48
2022-12-27T03:19:34.240Z,96.48
2022-12-27T03:20:34.188Z,96.48
2022-12-27T03:21:34.188Z,96.69
2022-12-27T03:22:34.163Z,96.69
2022-12-27T03:23:34.191Z,96.69
2022-12-27T03:24:34.159Z,96.69
2022-12-27T03:25:34.166Z,96.69
2022-12-27T03:26:34.131Z,96.79
2022-12-27T03:27:34.117Z,96.79
2022-12-27T03:28:34.105Z,96.89
2022-12-27T03:29:34.102Z,96.89
2022-12-27T03:30:34.124Z,96.89
2022-12-27T03:31:34.070Z,96.89
2022-12-27T03:32:34.061Z,96.79
2022-12-27T03:33:34.047Z,96.79
2022-12-27T03:34:34.045Z,96.69
2022-12-27T03:35:34.035Z,96.58
2022-12-27T03:36:34.047Z,96.48
2022-12-27T03:37:34.007Z,96.48
2022-12-27T03:38:34.001Z,96.54
2022-12-27T03:39:33.981Z,96.54
2022-12-27T03:40:33.967Z,96.33
2022-12-27T03:41:33.971Z,96.27
2022-12-27T03:42:33.976Z,96.37
2022-12-27T03:43:33.948Z,96.58
2022-12-27T03:44:33.933Z,96.69
2022-12-27T03:45:33.931Z,96.64
2022-12-27T03:46:34.267Z,96.54
2022-12-27T03:47:33.918Z,96.48
2022-12-27T03:48:33.895Z,96.48
2022-12-27T03:49:33.875Z,96.58
2022-12-27T03:50:33.873Z,96.58
2022-12-27T03:51:33.873Z,96.69
2022-12-27T03:52:33.838Z,96.79
2022-12-27T03:53:33.847Z,96.64
2022-12-27T03:54:33.817Z,96.54
2022-12-27T03:55:33.815Z,96.54
2022-12-27T03:56:33.797Z,96.54
2022-12-27T03:57:33.794Z,96.44
2022-12-27T03:58:33.774Z,96.48
2022-12-27T03:59:33.781Z,96.54
2022-12-27T04:00:33.757Z,96.69
2022-12-27T04:01:33.872Z,96.89
2022-12-27T04:02:33.897Z,96.85
2022-12-27T04:03:33.750Z,96.95
2022-12-27T04:04:33.747Z,96.95
2022-12-27T04:05:33.696Z,96.95
2022-12-27T04:06:33.689Z,96.85
2022-12-27T04:07:33.665Z,96.75
2022-12-27T04:08:33.668Z,96.75
2022-12-27T04:09:33.650Z,96.64
2022-12-27T04:10:33.682Z,96.54
2022-12-27T04:11:33.626Z,96.44
2022-12-27T04:12:33.618Z,96.54
2022-12-27T04:13:33.605Z,96.64
2022-12-27T04:14:33.596Z,96.54
2022-12-27T04:15:33.588Z,96.44
2022-12-27T04:16:33.600Z,96.44
2022-12-27T04:17:33.562Z,96.33
2022-12-27T04:18:33.560Z,96.23
2022-12-27T04:19:33.544Z,96.12
2022-12-27T04:20:33.546Z,96.23
2022-12-27T04:21:33.557Z,96.23
2022-12-27T04:22:33.524Z,96.23
2022-12-27T04:23:33.497Z,96.23
2022-12-27T04:24:33.492Z,96.33
2022-12-27T04:25:33.472Z,96.33
2022-12-27T04:26:33.470Z,96.54
2022-12-27T04:27:33.492Z,96.54
2022-12-27T04:28:33.444Z,96.54
2022-12-27T04:29:33.432Z,96.64
2022-12-27T04:30:33.431Z,96.64
2022-12-27T04:31:33.453Z,96.64
2022-12-27T04:32:33.397Z,96.75
2022-12-27T04:33:33.415Z,96.75
2022-12-27T04:34:33.374Z,96.75
2022-12-27T04:35:33.358Z,96.64
2022-12-27T04:36:33.364Z,96.89
2022-12-27T04:37:33.338Z,97.10
2022-12-27T04:38:33.341Z,97.00
2022-12-27T04:39:33.348Z,97.20
2022-12-27T04:40:33.318Z,97.20
2022-12-27T04:41:33.292Z,97.20
2022-12-27T04:42:33.286Z,97.41
2022-12-27T04:43:33.272Z,97.58
2022-12-27T04:44:33.263Z,97.37
2022-12-27T04:45:33.299Z,97.37
2022-12-27T04:46:33.279Z,97.20
2022-12-27T04:47:33.233Z,97.31
2022-12-27T04:48:33.220Z,97.41
2022-12-27T04:49:33.211Z,97.62
2022-12-27T04:50:33.193Z,97.62
2022-12-27T04:51:33.220Z,97.62
2022-12-27T04:52:33.173Z,97.52
2022-12-27T04:53:33.166Z,97.62
2022-12-27T04:54:33.149Z,97.52
2022-12-27T04:55:33.134Z,97.52
2022-12-27T04:56:33.127Z,97.62
2022-12-27T04:57:33.160Z,97.72
2022-12-27T04:58:33.147Z,97.93
2022-12-27T04:59:33.108Z,98.03
2022-12-27T05:00:33.081Z,98.24
2022-12-27T05:01:33.213Z,98.20
2022-12-27T05:02:33.269Z,98.20
2022-12-27T05:03:33.152Z,98.10
2022-12-27T05:04:33.041Z,97.89
2022-12-27T05:05:33.032Z,97.89
2022-12-27T05:06:33.019Z,97.78
2022-12-27T05:07:33.012Z,98.10
2022-12-27T05:08:32.995Z,98.10
2022-12-27T05:09:33.021Z,98.10
2022-12-27T05:10:32.973Z,97.89
2022-12-27T05:11:32.963Z,97.89
2022-12-27T05:12:32.944Z,97.89
2022-12-27T05:13:32.941Z,97.99
2022-12-27T05:14:32.924Z,97.99
2022-12-27T05:15:32.958Z,97.99
2022-12-27T05:16:32.955Z,98.10
2022-12-27T05:17:32.902Z,98.36
2022-12-27T05:18:32.886Z,98.36
2022-12-27T05:19:32.877Z,98.26
2022-12-27T05:20:32.869Z,98.16
2022-12-27T05:21:32.893Z,98.16
2022-12-27T05:22:32.843Z,98.05
2022-12-27T05:23:32.838Z,98.16
2022-12-27T05:24:32.819Z,98.05
2022-12-27T05:25:32.811Z,97.95
2022-12-27T05:26:32.817Z,98.16
2022-12-27T05:27:32.817Z,98.11
2022-12-27T05:28:32.772Z,98.00
2022-12-27T05:29:32.770Z,97.95
2022-12-27T05:30:32.758Z,97.85
2022-12-27T05:31:32.793Z,97.95
2022-12-27T05:32:32.738Z,97.85
2022-12-27T05:33:32.772Z,97.69
2022-12-27T05:34:32.710Z,97.80
2022-12-27T05:35:32.704Z,97.80
2022-12-27T05:36:32.686Z,97.90
2022-12-27T05:37:32.692Z,97.69
2022-12-27T05:38:32.667Z,97.44
2022-12-27T05:39:32.692Z,97.24
2022-12-27T05:40:32.651Z,97.13
2022-12-27T05:41:32.644Z,97.24
2022-12-27T05:42:32.642Z,97.13
2022-12-27T05:43:32.613Z,97.13
2022-12-27T05:44:32.604Z,97.03
2022-12-27T05:45:32.615Z,97.03
2022-12-27T05:46:32.676Z,97.03
2022-12-27T05:47:32.569Z,96.92
2022-12-27T05:48:32.561Z,96.82
2022-12-27T05:49:32.551Z,96.82
2022-12-27T05:50:32.553Z,96.92
2022-12-27T05:51:32.557Z,96.92
2022-12-27T05:52:37.589Z,97.03
2022-12-27T05:53:32.508Z,97.03
2022-12-27T05:54:32.503Z,97.03
2022-12-27T05:55:32.481Z,97.03
2022-12-27T05:56:32.473Z,96.92
2022-12-27T05:57:32.482Z,96.92
2022-12-27T05:58:32.452Z,96.92
2022-12-27T05:59:32.436Z,96.98
2022-12-27T06:00:32.431Z,96.98
2022-12-27T06:01:32.602Z,96.88
2022-12-27T06:02:32.599Z,96.88
2022-12-27T06:03:32.556Z,96.88
2022-12-27T06:04:32.385Z,96.88
2022-12-27T06:05:32.374Z,96.98
2022-12-27T06:06:32.361Z,96.98
2022-12-27T06:07:32.347Z,97.09
2022-12-27T06:08:32.342Z,97.09
2022-12-27T06:09:32.367Z,96.98
2022-12-27T06:10:32.329Z,96.88
2022-12-27T06:11:32.299Z,96.67
2022-12-27T06:12:32.296Z,96.57
2022-12-27T06:13:32.286Z,96.57
2022-12-27T06:14:32.270Z,96.57
2022-12-27T06:15:32.310Z,96.57
2022-12-27T06:16:32.272Z,96.57
2022-12-27T06:17:32.251Z,96.57
2022-12-27T06:18:32.237Z,96.57
2022-12-27T06:19:32.215Z,96.57
2022-12-27T06:20:32.211Z,96.57
2022-12-27T06:21:32.243Z,96.57
2022-12-27T06:22:32.190Z,96.57
2022-12-27T06:23:32.186Z,96.47
2022-12-27T06:24:32.179Z,96.36
2022-12-27T06:25:32.153Z,96.26
2022-12-27T06:26:32.148Z,96.15
2022-12-27T06:27:32.155Z,96.26
2022-12-27T06:28:32.120Z,96.15
2022-12-27T06:29:32.124Z,96.15
2022-12-27T06:30:36.096Z,96.15
2022-12-27T06:31:32.115Z,96.26
2022-12-27T06:32:32.072Z,96.30
2022-12-27T06:33:32.077Z,96.51
2022-12-27T06:34:32.067Z,96.51
2022-12-27T06:35:32.048Z,96.41
2022-12-27T06:36:32.032Z,96.41
2022-12-27T06:37:32.020Z,96.41
2022-12-27T06:38:32.048Z,96.30
2022-12-27T06:39:31.998Z,96.41
2022-12-27T06:40:31.983Z,96.51
2022-12-27T06:41:31.975Z,96.61
2022-12-27T06:42:31.966Z,96.61
2022-12-27T06:43:31.949Z,96.61
2022-12-27T06:44:31.981Z,96.51
2022-12-27T06:45:32.002Z,96.51
2022-12-27T06:46:31.924Z,96.51
2022-12-27T06:47:31.904Z,96.61
2022-12-27T06:48:31.900Z,96.61
2022-12-27T06:49:31.878Z,96.51
2022-12-27T06:50:31.911Z,96.51
2022-12-27T06:51:31.864Z,96.51
2022-12-27T06:52:31.860Z,96.41
2022-12-27T06:53:31.836Z,96.41
2022-12-27T06:54:31.837Z,96.51
2022-12-27T06:55:31.825Z,96.55
2022-12-27T06:56:31.848Z,96.72
2022-12-27T06:57:31.797Z,96.72
2022-12-27T06:58:31.782Z,96.86
2022-12-27T06:59:31.777Z,96.86
2022-12-27T07:00:31.763Z,96.97
2022-12-27T07:01:31.904Z,97.28
2022-12-27T07:02:32.130Z,97.24
2022-12-27T07:03:31.730Z,97.13
2022-12-27T07:04:31.745Z,97.13
2022-12-27T07:05:31.716Z,97.13
2022-12-27T07:06:31.717Z,97.24
2022-12-27T07:07:31.735Z,97.24
2022-12-27T07:08:31.687Z,97.24
2022-12-27T07:09:31.657Z,97.24
2022-12-27T07:10:31.672Z,97.24
2022-12-27T07:11:31.649Z,97.24
2022-12-27T07:12:36.468Z,97.24
2022-12-27T07:13:31.663Z,97.34
2022-12-27T07:14:31.620Z,97.44
2022-12-27T07:15:31.601Z,97.49
2022-12-27T07:16:31.633Z,97.49
2022-12-27T07:17:31.606Z,97.59
2022-12-27T07:18:31.563Z,97.59
2022-12-27T07:19:31.577Z,97.69
2022-12-27T07:20:31.539Z,97.80
2022-12-27T07:21:31.527Z,97.80
2022-12-27T07:22:31.519Z,97.80
2022-12-27T07:23:31.507Z,98.00
2022-12-27T07:24:31.499Z,98.11
2022-12-27T07:25:31.523Z,98.11
2022-12-27T07:26:31.488Z,98.21
2022-12-27T07:27:31.466Z,98.32
2022-12-27T07:28:31.468Z,98.21
2022-12-27T07:29:31.458Z,98.00
2022-12-27T07:30:31.424Z,97.90
2022-12-27T07:31:31.500Z,98.11
2022-12-27T07:32:31.417Z,98.11
2022-12-27T07:33:31.387Z,98.11
2022-12-27T07:34:31.385Z,98.16
2022-12-27T07:35:31.373Z,98.26
2022-12-27T07:36:31.372Z,98.36
2022-12-27T07:37:31.374Z,98.36
2022-12-27T07:38:31.336Z,98.57
2022-12-27T07:39:31.331Z,98.68
2022-12-27T07:40:31.317Z,98.68
2022-12-27T07:41:31.303Z,98.57
2022-12-27T07:42:31.290Z,98.68
2022-12-27T07:43:31.310Z,98.47
2022-12-27T07:44:31.280Z,98.47
2022-12-27T07:45:31.362Z,98.57
2022-12-27T07:46:31.243Z,98.47
2022-12-27T07:47:31.250Z,98.36
2022-12-27T07:48:31.236Z,98.47
2022-12-27T07:49:31.251Z,98.57
2022-12-27T07:50:31.196Z,98.78
2022-12-27T07:51:31.198Z,98.68
2022-12-27T07:52:31.180Z,98.57
2022-12-27T07:53:31.170Z,98.36
2022-12-27T07:54:31.156Z,98.36
2022-12-27T07:55:31.333Z,98.57
2022-12-27T07:56:31.140Z,98.57
2022-12-27T07:57:31.133Z,98.57
2022-12-27T07:58:31.107Z,98.47
2022-12-27T07:59:31.141Z,98.36
2022-12-27T08:00:31.137Z,98.36
2022-12-27T08:01:31.268Z,98.26
2022-12-27T08:02:31.162Z,98.26
2022-12-27T08:03:31.154Z,98.16
2022-12-27T08:04:31.096Z,98.36
2022-12-27T08:05:31.049Z,98.47
2022-12-27T08:06:31.062Z,98.47
2022-12-27T08:07:31.020Z,98.47
2022-12-27T08:08:31.026Z,98.47
2022-12-27T08:09:31.035Z,98.47
2022-12-27T08:10:31.025Z,98.68
2022-12-27T08:11:30.973Z,98.57
2022-12-27T08:12:31.012Z,98.78
2022-12-27T08:13:30.987Z,98.88
2022-12-27T08:14:30.935Z,98.57
2022-12-27T08:15:30.926Z,98.57
2022-12-27T08:16:30.966Z,98.47
2022-12-27T08:17:30.903Z,98.57
2022-12-27T08:18:30.894Z,98.57
2022-12-27T08:19:30.905Z,98.57
2022-12-27T08:20:30.870Z,98.78
2022-12-27T08:21:30.868Z,98.68
2022-12-27T08:22:30.845Z,98.68
2022-12-27T08:23:30.846Z,98.57
2022-12-27T08:24:30.857Z,98.57
2022-12-27T08:25:30.824Z,98.57
2022-12-27T08:26:30.805Z,98.47
2022-12-27T08:27:30.796Z,98.57
2022-12-27T08:28:30.773Z,98.57
2022-12-27T08:29:30.775Z,98.68
2022-12-27T08:30:30.853Z,98.63
2022-12-27T08:31:30.751Z,98.63
2022-12-27T08:32:30.735Z,98.52
2022-12-27T08:33:30.745Z,98.42
2022-12-27T08:34:30.719Z,98.32
2022-12-27T08:35:52.065Z,98.32
2022-12-27T08:36:54.548Z,98.21
2022-12-27T08:37:30.701Z,98.32
2022-12-27T08:38:30.674Z,98.32
2022-12-27T08:39:30.657Z,98.32
2022-12-27T08:40:30.669Z,98.32
2022-12-27T08:41:30.683Z,98.32
2022-12-27T08:42:30.620Z,98.32
2022-12-27T08:43:30.618Z,98.32
2022-12-27T08:44:30.601Z,98.32
2022-12-27T08:45:30.596Z,98.32
2022-12-27T08:46:30.617Z,98.21
2022-12-27T08:47:30.652Z,98.32
2022-12-27T08:48:30.613Z,98.21
2022-12-27T08:49:30.544Z,98.21
2022-12-27T08:50:30.556Z,98.32
2022-12-27T08:51:38.790Z,98.32
2022-12-27T08:52:30.589Z,98.21
2022-12-27T08:53:30.537Z,98.21
2022-12-27T08:54:30.498Z,98.11
2022-12-27T08:55:30.477Z,98.11
2022-12-27T08:56:30.487Z,98.11
2022-12-27T08:57:30.453Z,98.11
2022-12-27T08:58:30.480Z,98.00
2022-12-27T08:59:30.435Z,98.00
2022-12-27T09:00:30.421Z,98.00
2022-12-27T09:01:30.657Z,97.90
2022-12-27T09:02:30.500Z,97.86
2022-12-27T09:03:30.400Z,97.75
2022-12-27T09:04:30.407Z,97.75
2022-12-27T09:05:30.367Z,97.75
2022-12-27T09:06:30.382Z,97.65
2022-12-27T09:07:30.343Z,97.65
2022-12-27T09:08:30.336Z,97.44
2022-12-27T09:09:30.319Z,97.39
2022-12-27T09:10:30.356Z,96.98
2022-12-27T09:11:30.309Z,96.78
2022-12-27T09:12:30.298Z,96.78
2022-12-27T09:13:30.277Z,96.78
2022-12-27T09:14:30.277Z,96.67
2022-12-27T09:15:30.334Z,96.88
2022-12-27T09:16:30.278Z,96.88
2022-12-27T09:17:30.242Z,96.78
2022-12-27T09:18:30.227Z,96.88
2022-12-27T09:19:30.221Z,96.88
2022-12-27T09:20:30.202Z,96.98
2022-12-27T09:21:30.183Z,97.09
2022-12-27T09:22:30.235Z,96.98
2022-12-27T09:23:30.174Z,96.98
2022-12-27T09:24:30.159Z,96.98
2022-12-27T09:25:30.248Z,96.88
2022-12-27T09:26:30.152Z,96.98
2022-12-27T09:27:30.132Z,96.98
2022-12-27T09:28:30.156Z,96.88
2022-12-27T09:29:30.099Z,96.88
2022-12-27T09:30:30.116Z,96.98
2022-12-27T09:31:30.147Z,96.98
2022-12-27T09:32:30.074Z,96.88
2022-12-27T09:33:30.070Z,96.88
2022-12-27T09:34:30.341Z,96.78
2022-12-27T09:35:30.198Z,96.78
2022-12-27T09:36:30.025Z,96.73
2022-12-27T09:37:30.020Z,96.62
2022-12-27T09:38:30.027Z,96.62
2022-12-27T09:39:30.005Z,96.52
2022-12-27T09:40:30.010Z,96.62
2022-12-27T09:42:33.079Z,96.73
2022-12-27T09:43:01.902Z,96.73
2022-12-27T09:43:29.974Z,96.62
2022-12-27T09:44:29.935Z,96.62
2022-12-27T09:45:29.922Z,96.52
2022-12-27T09:46:29.987Z,96.52
2022-12-27T09:47:29.902Z,96.52
2022-12-27T09:48:33.249Z,96.42
2022-12-27T09:49:29.893Z,96.42
2022-12-27T09:50:29.873Z,96.27
2022-12-27T09:51:29.903Z,96.27
2022-12-27T09:52:29.872Z,96.37
2022-12-27T09:53:29.846Z,96.37
2022-12-27T09:54:29.837Z,96.37
2022-12-27T09:55:29.827Z,96.23
2022-12-27T09:56:54.075Z,96.12
2022-12-27T09:57:29.800Z,95.92
2022-12-27T09:58:29.819Z,95.81
2022-12-27T09:59:29.772Z,95.71
2022-12-27T10:00:35.058Z,95.71
2022-12-27T10:01:29.891Z,95.61
2022-12-27T10:02:29.848Z,95.50
2022-12-27T10:03:29.742Z,95.50
2022-12-27T10:04:45.438Z,95.46
2022-12-27T10:05:29.737Z,95.36
2022-12-27T10:06:29.693Z,95.15
2022-12-27T10:07:29.742Z,95.15
2022-12-27T10:08:29.705Z,95.25
2022-12-27T10:09:29.707Z,95.15
2022-12-27T10:10:29.755Z,94.84
2022-12-27T10:11:29.651Z,95.00
2022-12-27T10:12:31.812Z,94.90
2022-12-27T10:13:29.635Z,94.79
2022-12-27T10:14:29.603Z,94.48
2022-12-27T10:15:29.631Z,94.59
2022-12-27T10:16:29.688Z,94.48
2022-12-27T10:17:29.580Z,93.97
2022-12-27T10:18:29.576Z,93.97
2022-12-27T10:19:29.651Z,93.97
2022-12-27T10:20:29.611Z,93.97
2022-12-27T10:21:29.693Z,93.72
2022-12-27T10:22:29.527Z,93.66
2022-12-27T10:23:29.515Z,93.76
2022-12-27T10:24:29.505Z,93.76
2022-12-27T10:25:29.501Z,93.76
2022-12-27T10:26:29.501Z,93.76
2022-12-27T10:27:29.511Z,93.87
2022-12-27T10:28:29.451Z,94.07
2022-12-27T10:29:29.440Z,94.07
2022-12-27T10:30:29.423Z,93.97
2022-12-27T10:31:29.498Z,93.97
2022-12-27T10:32:29.437Z,93.93
2022-12-27T10:33:29.473Z,93.93
2022-12-27T10:34:29.394Z,93.82
2022-12-27T10:35:29.372Z,93.72
2022-12-27T10:36:29.363Z,93.72
2022-12-27T10:37:29.362Z,93.82
2022-12-27T10:38:29.551Z,93.82
2022-12-27T10:39:29.333Z,93.93
2022-12-27T10:40:34.214Z,94.13
2022-12-27T10:41:29.332Z,93.88
2022-12-27T10:42:29.306Z,93.51
2022-12-27T10:43:29.288Z,93.41
2022-12-27T10:44:29.294Z,93.72
2022-12-27T10:45:29.293Z,93.78
2022-12-27T10:46:33.108Z,93.68
2022-12-27T10:47:29.246Z,93.05
2022-12-27T10:48:47.364Z,93.37
2022-12-27T10:49:29.266Z,93.47
2022-12-27T10:50:29.215Z,93.41
2022-12-27T10:51:29.226Z,93.47
2022-12-27T10:52:29.191Z,93.41
2022-12-27T10:53:29.177Z,93.51
2022-12-27T10:54:29.199Z,94.03
2022-12-27T10:55:29.191Z,93.88
2022-12-27T10:56:29.139Z,93.78
2022-12-27T10:57:29.188Z,93.32
2022-12-27T10:58:29.124Z,93.12
2022-12-27T10:59:29.121Z,92.80
2022-12-27T11:00:29.115Z,92.80
2022-12-27T11:01:29.216Z,92.55
2022-12-27T11:02:29.233Z,92.25
2022-12-27T11:03:29.063Z,91.63
2022-12-27T11:04:29.050Z,91.52
2022-12-27T11:05:29.065Z,91.63
2022-12-27T11:06:29.038Z,91.89
2022-12-27T11:07:29.060Z,91.38
2022-12-27T11:08:28.999Z,91.07
2022-12-27T11:09:29.000Z,90.97
2022-12-27T11:10:28.990Z,91.11
2022-12-27T11:11:28.976Z,90.97
2022-12-27T11:12:28.960Z,91.17
2022-12-27T11:13:28.977Z,91.07
2022-12-27T11:14:28.931Z,91.07
2022-12-27T11:15:28.955Z,90.66
2022-12-27T11:16:28.974Z,90.76
2022-12-27T11:17:28.901Z,91.01
2022-12-27T11:18:28.910Z,91.32
2022-12-27T11:19:28.924Z,91.01
2022-12-27T11:20:28.879Z,91.01
2022-12-27T11:21:28.867Z,91.01
2022-12-27T11:22:28.879Z,91.11
2022-12-27T11:23:28.837Z,91.11
2022-12-27T11:24:28.824Z,91.22
2022-12-27T11:25:28.851Z,91.22
2022-12-27T11:26:28.805Z,91.11
2022-12-27T11:27:28.790Z,91.11
2022-12-27T11:28:28.785Z,91.11
2022-12-27T11:29:28.792Z,91.32
2022-12-27T11:30:28.784Z,91.17
2022-12-27T11:31:28.797Z,91.07
2022-12-27T11:32:28.741Z,90.91
2022-12-27T11:33:28.768Z,91.28
2022-12-27T11:34:28.716Z,91.28
2022-12-27T11:35:28.714Z,91.48
2022-12-27T11:36:28.736Z,91.69
2022-12-27T11:37:28.692Z,91.48
2022-12-27T11:38:28.703Z,91.34
2022-12-27T11:39:28.663Z,90.66
2022-12-27T11:40:28.651Z,90.92
2022-12-27T11:41:28.655Z,90.86
2022-12-27T11:42:28.647Z,90.97
2022-12-27T11:43:28.619Z,90.66
2022-12-27T11:44:28.600Z,90.97
2022-12-27T11:45:28.594Z,90.91
2022-12-27T11:46:28.617Z,91.32
2022-12-27T11:47:28.565Z,91.52
2022-12-27T11:48:28.610Z,91.63
2022-12-27T11:49:28.549Z,91.69
2022-12-27T11:50:28.543Z,91.69
2022-12-27T11:51:28.528Z,91.38
2022-12-27T11:52:28.519Z,90.97
2022-12-27T11:53:28.501Z,91.17
2022-12-27T11:54:28.531Z,91.28
2022-12-27T11:55:28.490Z,91.38
2022-12-27T11:56:28.485Z,91.17
2022-12-27T11:57:28.455Z,91.17
2022-12-27T11:58:28.452Z,91.28
2022-12-27T11:59:28.441Z,91.01
2022-12-27T12:00:28.453Z,90.91
2022-12-27T12:01:28.494Z,91.11
2022-12-27T12:02:28.485Z,91.28
2022-12-27T12:03:28.457Z,91.28
2022-12-27T12:04:28.387Z,91.07
2022-12-27T12:05:28.367Z,91.03
2022-12-27T12:06:34.136Z,90.92
2022-12-27T12:07:28.367Z,91.13
2022-12-27T12:08:28.343Z,91.03
2022-12-27T12:09:28.332Z,90.61
2022-12-27T12:10:28.320Z,90.51
2022-12-27T12:11:28.311Z,90.57
2022-12-27T12:12:28.323Z,90.67
2022-12-27T12:13:28.303Z,90.88
2022-12-27T12:14:28.274Z,90.64
2022-12-27T12:15:28.256Z,90.22
2022-12-27T12:16:28.283Z,89.85
2022-12-27T12:17:34.003Z,90.12
2022-12-27T12:18:28.238Z,90.33
2022-12-27T12:19:28.218Z,90.18
2022-12-27T12:20:28.206Z,89.77
2022-12-27T12:21:28.196Z,89.56
2022-12-27T12:22:28.186Z,89.67
2022-12-27T12:23:28.211Z,89.25
2022-12-27T12:24:28.174Z,89.15
2022-12-27T12:25:28.146Z,88.74
2022-12-27T12:26:28.159Z,88.64
2022-12-27T12:27:28.122Z,88.64
2022-12-27T12:28:56.483Z,89.25
2022-12-27T12:29:28.154Z,89.56
2022-12-27T12:30:28.090Z,88.95
2022-12-27T12:31:28.144Z,88.74
2022-12-27T12:32:28.080Z,88.64
2022-12-27T12:33:28.056Z,89.05
2022-12-27T12:34:28.051Z,88.74
2022-12-27T12:35:28.068Z,88.95
2022-12-27T12:36:28.038Z,88.56
2022-12-27T12:37:28.019Z,87.94
2022-12-27T12:38:28.012Z,87.79
2022-12-27T12:39:27.990Z,87.01
2022-12-27T12:40:27.992Z,87.12
2022-12-27T12:41:28.349Z,86.80
2022-12-27T12:42:27.982Z,87.59
2022-12-27T12:43:27.943Z,86.50
2022-12-27T12:44:27.935Z,86.95
2022-12-27T12:45:27.923Z,87.98
2022-12-27T12:46:27.975Z,87.87
2022-12-27T12:47:27.931Z,87.87
2022-12-27T12:48:27.892Z,87.87
2022-12-27T12:49:27.883Z,87.98
2022-12-27T12:50:27.903Z,88.33
2022-12-27T12:51:27.867Z,88.33
2022-12-27T12:52:27.844Z,88.53